LAN386 SCEL-SCCF
Flight info
| Callsign | LAN386 |
|---|---|
| Flight time | 1h 46m |
| Altitude | 36000 |
| Route | DILO7B DILOK UQ814 MARGU DCT |
| Aircraft | A320/M-SD3/L |
Departure
| Time | 2026-05-05 03:26 |
|---|---|
| Airport | Comodoro Arturo Merino Benítez International Airport (SCEL) |
Arrival
| Time | 2026-05-05 05:12 |
|---|---|
| Airport | El Loa Airport (SCCF) |
| Time | Latitude | Longitude | Altitude | Speed | Heading |
|---|---|---|---|---|---|
| 2026-05-05 03:17 | -33.39810 | -70.79719 | 1565 ft | 0 kts | 272° |
| 2026-05-05 03:18 | -33.39810 | -70.79735 | 1565 ft | 7 kts | 267° |
| 2026-05-05 03:18 | -33.39820 | -70.79795 | 1565 ft | 8 kts | 261° |
| 2026-05-05 03:18 | -33.39839 | -70.79883 | 1565 ft | 14 kts | 250° |
| 2026-05-05 03:19 | -33.39737 | -70.80033 | 1566 ft | 17 kts | 358° |
| 2026-05-05 03:19 | -33.39605 | -70.80040 | 1566 ft | 21 kts | 357° |
| 2026-05-05 03:19 | -33.39449 | -70.80049 | 1566 ft | 24 kts | 358° |
| 2026-05-05 03:20 | -33.39272 | -70.80057 | 1567 ft | 27 kts | 357° |
| 2026-05-05 03:20 | -33.39076 | -70.80070 | 1567 ft | 29 kts | 357° |
| 2026-05-05 03:20 | -33.38867 | -70.80081 | 1567 ft | 31 kts | 357° |
| 2026-05-05 03:20 | -33.38644 | -70.80093 | 1567 ft | 33 kts | 358° |
| 2026-05-05 03:21 | -33.38412 | -70.80105 | 1566 ft | 34 kts | 357° |
| 2026-05-05 03:21 | -33.38171 | -70.80118 | 1566 ft | 35 kts | 357° |
| 2026-05-05 03:21 | -33.37923 | -70.80131 | 1566 ft | 36 kts | 357° |
| 2026-05-05 03:21 | -33.37671 | -70.80144 | 1566 ft | 36 kts | 357° |
| 2026-05-05 03:22 | -33.37425 | -70.80157 | 1567 ft | 35 kts | 357° |
| 2026-05-05 03:22 | -33.37215 | -70.80168 | 1567 ft | 23 kts | 357° |
| 2026-05-05 03:22 | -33.37114 | -70.80225 | 1568 ft | 6 kts | 297° |
| 2026-05-05 03:22 | -33.37114 | -70.80227 | 1568 ft | 0 kts | 296° |
| 2026-05-05 03:23 | -33.37110 | -70.80238 | 1569 ft | 6 kts | 292° |
| 2026-05-05 03:24 | -33.37112 | -70.80319 | 1573 ft | 13 kts | 252° |
| 2026-05-05 03:24 | -33.37171 | -70.80374 | 1574 ft | 10 kts | 188° |
| 2026-05-05 03:24 | -33.37202 | -70.80374 | 1573 ft | 2 kts | 178° |
| 2026-05-05 03:24 | -33.37298 | -70.80368 | 1573 ft | 35 kts | 177° |
| 2026-05-05 03:25 | -33.37775 | -70.80343 | 1572 ft | 97 kts | 178° |
| 2026-05-05 03:25 | -33.38612 | -70.80298 | 1574 ft | 142 kts | 177° |
| 2026-05-05 03:25 | -33.39724 | -70.80239 | 1675 ft | 169 kts | 177° |
| 2026-05-05 03:25 | -33.40891 | -70.80164 | 2139 ft | 173 kts | 176° |
| 2026-05-05 03:26 | -33.42141 | -70.80045 | 2488 ft | 187 kts | 175° |
| 2026-05-05 03:26 | -33.43506 | -70.79906 | 2767 ft | 207 kts | 175° |
| 2026-05-05 03:26 | -33.45000 | -70.79738 | 3050 ft | 226 kts | 174° |
| 2026-05-05 03:26 | -33.46617 | -70.79531 | 3347 ft | 232 kts | 174° |
| 2026-05-05 03:27 | -33.48275 | -70.79345 | 3633 ft | 251 kts | 175° |
| 2026-05-05 03:27 | -33.50066 | -70.79281 | 4241 ft | 262 kts | 182° |
| 2026-05-05 03:27 | -33.51892 | -70.79643 | 4944 ft | 271 kts | 200° |
| 2026-05-05 03:27 | -33.53538 | -70.80855 | 5393 ft | 288 kts | 227° |
| 2026-05-05 03:28 | -33.54561 | -70.82804 | 6351 ft | 273 kts | 254° |
| 2026-05-05 03:28 | -33.54801 | -70.85042 | 7057 ft | 272 kts | 281° |
| 2026-05-05 03:28 | -33.54133 | -70.87122 | 7788 ft | 269 kts | 307° |
| 2026-05-05 03:28 | -33.52961 | -70.88853 | 8576 ft | 267 kts | 311° |
| 2026-05-05 03:29 | -33.51760 | -70.90565 | 9351 ft | 270 kts | 311° |
| 2026-05-05 03:29 | -33.50504 | -70.92287 | 9963 ft | 278 kts | 313° |
| 2026-05-05 03:29 | -33.49157 | -70.94036 | 10390 ft | 292 kts | 311° |
| 2026-05-05 03:29 | -33.47834 | -70.95849 | 11269 ft | 286 kts | 314° |
| 2026-05-05 03:30 | -33.46307 | -70.97365 | 12049 ft | 287 kts | 328° |
| 2026-05-05 03:30 | -33.44429 | -70.98200 | 12757 ft | 295 kts | 349° |
| 2026-05-05 03:30 | -33.42329 | -70.98192 | 13149 ft | 313 kts | 360° |
| 2026-05-05 03:30 | -33.40073 | -70.98000 | 13296 ft | 336 kts | 1° |
| 2026-05-05 03:31 | -33.37692 | -70.97763 | 13644 ft | 349 kts | 1° |
| 2026-05-05 03:31 | -33.35254 | -70.97506 | 14175 ft | 354 kts | 1° |
| 2026-05-05 03:31 | -33.32791 | -70.97250 | 14677 ft | 358 kts | 0° |
| 2026-05-05 03:31 | -33.30297 | -70.97001 | 15212 ft | 361 kts | 0° |
| 2026-05-05 03:32 | -33.27780 | -70.96759 | 15764 ft | 364 kts | 0° |
| 2026-05-05 03:32 | -33.25244 | -70.96523 | 16283 ft | 368 kts | 360° |
| 2026-05-05 03:32 | -33.22685 | -70.96102 | 16766 ft | 376 kts | 9° |
| 2026-05-05 03:32 | -33.20189 | -70.95043 | 17265 ft | 387 kts | 21° |
| 2026-05-05 03:33 | -33.17868 | -70.93345 | 17784 ft | 396 kts | 31° |
| 2026-05-05 03:33 | -33.15630 | -70.91402 | 18233 ft | 400 kts | 31° |
| 2026-05-05 03:33 | -33.13361 | -70.89457 | 18689 ft | 403 kts | 31° |
| 2026-05-05 03:33 | -33.11070 | -70.87512 | 19097 ft | 404 kts | 31° |
| 2026-05-05 03:34 | -33.08769 | -70.85564 | 19539 ft | 407 kts | 30° |
| 2026-05-05 03:34 | -33.06452 | -70.83600 | 19995 ft | 411 kts | 30° |
| 2026-05-05 03:34 | -33.04116 | -70.81611 | 20456 ft | 414 kts | 30° |
| 2026-05-05 03:34 | -33.01784 | -70.79571 | 20930 ft | 418 kts | 31° |
| 2026-05-05 03:35 | -32.99475 | -70.77517 | 21357 ft | 422 kts | 31° |
| 2026-05-05 03:35 | -32.97121 | -70.75412 | 21827 ft | 425 kts | 31° |
| 2026-05-05 03:35 | -32.94747 | -70.73296 | 22276 ft | 428 kts | 30° |
| 2026-05-05 03:35 | -32.92217 | -70.71479 | 22712 ft | 423 kts | 19° |
| 2026-05-05 03:36 | -32.89491 | -70.70216 | 23128 ft | 417 kts | 8° |
| 2026-05-05 03:36 | -32.86673 | -70.69530 | 23534 ft | 411 kts | 359° |
| 2026-05-05 03:36 | -32.83823 | -70.69304 | 23896 ft | 411 kts | 355° |
| 2026-05-05 03:36 | -32.80967 | -70.69123 | 24271 ft | 413 kts | 355° |
| 2026-05-05 03:37 | -32.78088 | -70.68935 | 24632 ft | 414 kts | 355° |
| 2026-05-05 03:37 | -32.75203 | -70.68743 | 25001 ft | 416 kts | 355° |
| 2026-05-05 03:37 | -32.72305 | -70.68548 | 25348 ft | 418 kts | 355° |
| 2026-05-05 03:37 | -32.69397 | -70.68354 | 25682 ft | 419 kts | 355° |
| 2026-05-05 03:38 | -32.66478 | -70.68160 | 26017 ft | 421 kts | 355° |
| 2026-05-05 03:38 | -32.63550 | -70.67964 | 26370 ft | 422 kts | 355° |
| 2026-05-05 03:38 | -32.60613 | -70.67770 | 26715 ft | 424 kts | 355° |
| 2026-05-05 03:38 | -32.57661 | -70.67573 | 27040 ft | 425 kts | 355° |
| 2026-05-05 03:39 | -32.54708 | -70.67372 | 27366 ft | 427 kts | 354° |
| 2026-05-05 03:39 | -32.51735 | -70.67172 | 27652 ft | 428 kts | 354° |
| 2026-05-05 03:39 | -32.48762 | -70.66975 | 27918 ft | 429 kts | 354° |
| 2026-05-05 03:39 | -32.45780 | -70.66778 | 28241 ft | 431 kts | 354° |
| 2026-05-05 03:40 | -32.42779 | -70.66577 | 28564 ft | 433 kts | 354° |
| 2026-05-05 03:40 | -32.39804 | -70.66378 | 28875 ft | 434 kts | 354° |
| 2026-05-05 03:40 | -32.36784 | -70.66177 | 29194 ft | 436 kts | 354° |
| 2026-05-05 03:40 | -32.33750 | -70.65978 | 29470 ft | 437 kts | 354° |
| 2026-05-05 03:41 | -32.30707 | -70.65780 | 29749 ft | 439 kts | 354° |
| 2026-05-05 03:41 | -32.27653 | -70.65581 | 30006 ft | 440 kts | 354° |
| 2026-05-05 03:41 | -32.24595 | -70.65380 | 30245 ft | 441 kts | 353° |
| 2026-05-05 03:41 | -32.21521 | -70.65177 | 30454 ft | 442 kts | 353° |
| 2026-05-05 03:42 | -32.19483 | -70.65044 | 30574 ft | 443 kts | 354° |
| 2026-05-05 03:42 | -32.16398 | -70.64841 | 30775 ft | 443 kts | 353° |
| 2026-05-05 03:42 | -32.13327 | -70.64640 | 30981 ft | 443 kts | 353° |
| 2026-05-05 03:42 | -32.10241 | -70.64436 | 31167 ft | 442 kts | 353° |
| 2026-05-05 03:43 | -32.07167 | -70.64232 | 31389 ft | 442 kts | 353° |
| 2026-05-05 03:43 | -32.04103 | -70.64030 | 31604 ft | 441 kts | 353° |
| 2026-05-05 03:43 | -32.01043 | -70.63828 | 31790 ft | 440 kts | 353° |
| 2026-05-05 03:43 | -31.97996 | -70.63625 | 31925 ft | 439 kts | 353° |
| 2026-05-05 03:44 | -31.94943 | -70.63427 | 32055 ft | 439 kts | 353° |
| 2026-05-05 03:44 | -31.91905 | -70.63235 | 32189 ft | 437 kts | 353° |
| 2026-05-05 03:44 | -31.88861 | -70.63077 | 32322 ft | 438 kts | 352° |
| 2026-05-05 03:44 | -31.85818 | -70.62951 | 32502 ft | 437 kts | 352° |
| 2026-05-05 03:45 | -31.82815 | -70.62839 | 32728 ft | 436 kts | 352° |
| 2026-05-05 03:45 | -31.79747 | -70.62724 | 32917 ft | 436 kts | 351° |
| 2026-05-05 03:45 | -31.76711 | -70.62605 | 33135 ft | 436 kts | 351° |
| 2026-05-05 03:45 | -31.73676 | -70.62479 | 33428 ft | 436 kts | 352° |
| 2026-05-05 03:46 | -31.70643 | -70.62347 | 33650 ft | 435 kts | 352° |
| 2026-05-05 03:46 | -31.67657 | -70.62215 | 33924 ft | 435 kts | 351° |
| 2026-05-05 03:46 | -31.64631 | -70.62081 | 34178 ft | 435 kts | 352° |
| 2026-05-05 03:46 | -31.61573 | -70.61945 | 34438 ft | 434 kts | 351° |
| 2026-05-05 03:47 | -31.58599 | -70.61812 | 34698 ft | 433 kts | 351° |
| 2026-05-05 03:47 | -31.55590 | -70.61683 | 34917 ft | 432 kts | 351° |
| 2026-05-05 03:47 | -31.52589 | -70.61557 | 35145 ft | 431 kts | 351° |
| 2026-05-05 03:47 | -31.49594 | -70.61431 | 35359 ft | 430 kts | 351° |
| 2026-05-05 03:48 | -31.46598 | -70.61303 | 35502 ft | 430 kts | 351° |
| 2026-05-05 03:48 | -31.43612 | -70.61175 | 35654 ft | 430 kts | 351° |
| 2026-05-05 03:48 | -31.40621 | -70.61046 | 35829 ft | 430 kts | 351° |
| 2026-05-05 03:48 | -31.37637 | -70.60914 | 35973 ft | 427 kts | 351° |
| 2026-05-05 03:49 | -31.34672 | -70.60774 | 36134 ft | 428 kts | 352° |
| 2026-05-05 03:49 | -31.31672 | -70.60303 | 36158 ft | 441 kts | 359° |
| 2026-05-05 03:49 | -31.25652 | -70.58903 | 36156 ft | 441 kts | 359° |
| 2026-05-05 03:50 | -31.19657 | -70.57484 | 36133 ft | 439 kts | 360° |
| 2026-05-05 03:50 | -31.13658 | -70.56073 | 36140 ft | 439 kts | 359° |
| 2026-05-05 03:51 | -31.07670 | -70.54673 | 36106 ft | 438 kts | 359° |
| 2026-05-05 03:51 | -31.01688 | -70.53274 | 36093 ft | 439 kts | 359° |
| 2026-05-05 03:52 | -30.95735 | -70.51885 | 36086 ft | 439 kts | 359° |
| 2026-05-05 03:52 | -30.89741 | -70.50488 | 36081 ft | 439 kts | 359° |
| 2026-05-05 03:53 | -30.83726 | -70.49088 | 36094 ft | 442 kts | 359° |
| 2026-05-05 03:53 | -30.77699 | -70.47684 | 36066 ft | 440 kts | 359° |
| 2026-05-05 03:54 | -30.71698 | -70.46294 | 36113 ft | 438 kts | 359° |
| 2026-05-05 03:54 | -30.65692 | -70.44899 | 36142 ft | 441 kts | 359° |
| 2026-05-05 03:55 | -30.59685 | -70.43507 | 36141 ft | 440 kts | 359° |
| 2026-05-05 03:55 | -30.53727 | -70.42128 | 36127 ft | 439 kts | 359° |
| 2026-05-05 03:56 | -30.47733 | -70.40741 | 36131 ft | 439 kts | 359° |
| 2026-05-05 03:56 | -30.41729 | -70.39357 | 36132 ft | 440 kts | 358° |
| 2026-05-05 03:57 | -30.35717 | -70.37970 | 36140 ft | 440 kts | 359° |
| 2026-05-05 03:57 | -30.29716 | -70.36582 | 36123 ft | 440 kts | 359° |
| 2026-05-05 03:58 | -30.23703 | -70.35199 | 36130 ft | 442 kts | 358° |
| 2026-05-05 03:58 | -30.17652 | -70.33813 | 36146 ft | 443 kts | 359° |
| 2026-05-05 03:59 | -30.11608 | -70.32427 | 36189 ft | 442 kts | 359° |
| 2026-05-05 03:59 | -30.05575 | -70.31047 | 36181 ft | 441 kts | 359° |
| 2026-05-05 04:00 | -29.99611 | -70.29674 | 36146 ft | 440 kts | 359° |
| 2026-05-05 04:00 | -29.93597 | -70.28291 | 36144 ft | 440 kts | 359° |
| 2026-05-05 04:01 | -29.87578 | -70.26918 | 36170 ft | 441 kts | 359° |
| 2026-05-05 04:01 | -29.81570 | -70.25556 | 36153 ft | 438 kts | 359° |
| 2026-05-05 04:02 | -29.75564 | -70.24195 | 36185 ft | 441 kts | 359° |
| 2026-05-05 04:02 | -29.69550 | -70.22827 | 36154 ft | 439 kts | 358° |
| 2026-05-05 04:03 | -29.66591 | -70.22147 | 36188 ft | 428 kts | 358° |
| 2026-05-05 04:03 | -29.63676 | -70.21475 | 36212 ft | 428 kts | 358° |
| 2026-05-05 04:03 | -29.57761 | -70.20152 | 36199 ft | 437 kts | 359° |
| 2026-05-05 04:04 | -29.51794 | -70.18813 | 36246 ft | 442 kts | 359° |
| 2026-05-05 04:04 | -29.45761 | -70.17438 | 36242 ft | 442 kts | 359° |
| 2026-05-05 04:05 | -29.39725 | -70.16063 | 36239 ft | 442 kts | 359° |
| 2026-05-05 04:05 | -29.33709 | -70.14702 | 36213 ft | 436 kts | 359° |
| 2026-05-05 04:06 | -29.27740 | -70.13358 | 36211 ft | 439 kts | 359° |
| 2026-05-05 04:06 | -29.21729 | -70.12016 | 36214 ft | 441 kts | 359° |
| 2026-05-05 04:07 | -29.15731 | -70.10663 | 36169 ft | 442 kts | 359° |
| 2026-05-05 04:07 | -29.09692 | -70.09297 | 36151 ft | 443 kts | 359° |
| 2026-05-05 04:08 | -29.03668 | -70.07938 | 36158 ft | 441 kts | 358° |
| 2026-05-05 04:08 | -28.97627 | -70.06593 | 36139 ft | 443 kts | 359° |
| 2026-05-05 04:09 | -28.91580 | -70.05241 | 36193 ft | 444 kts | 359° |
| 2026-05-05 04:09 | -28.85505 | -70.03884 | 36164 ft | 445 kts | 359° |
| 2026-05-05 04:10 | -28.79422 | -70.02525 | 36165 ft | 445 kts | 359° |
| 2026-05-05 04:10 | -28.73399 | -70.01175 | 36186 ft | 444 kts | 359° |
| 2026-05-05 04:11 | -28.67368 | -69.99828 | 36196 ft | 441 kts | 359° |
| 2026-05-05 04:11 | -28.61330 | -69.98492 | 36196 ft | 443 kts | 359° |
| 2026-05-05 04:12 | -28.55271 | -69.97151 | 36161 ft | 444 kts | 359° |
| 2026-05-05 04:12 | -28.49200 | -69.95802 | 36156 ft | 444 kts | 358° |
| 2026-05-05 04:13 | -28.43142 | -69.94596 | 36159 ft | 441 kts | 357° |
| 2026-05-05 04:13 | -28.37081 | -69.93501 | 36133 ft | 441 kts | 356° |
| 2026-05-05 04:14 | -28.31021 | -69.92385 | 36184 ft | 442 kts | 357° |
| 2026-05-05 04:14 | -28.24947 | -69.91231 | 36123 ft | 442 kts | 357° |
| 2026-05-05 04:15 | -28.18924 | -69.90084 | 36132 ft | 441 kts | 357° |
| 2026-05-05 04:15 | -28.12875 | -69.88933 | 36129 ft | 441 kts | 357° |
| 2026-05-05 04:16 | -28.06810 | -69.87791 | 36109 ft | 442 kts | 357° |
| 2026-05-05 04:16 | -28.00749 | -69.86661 | 36060 ft | 441 kts | 357° |
| 2026-05-05 04:17 | -27.94701 | -69.85527 | 36081 ft | 443 kts | 357° |
| 2026-05-05 04:17 | -27.88600 | -69.84383 | 36094 ft | 445 kts | 358° |
| 2026-05-05 04:18 | -27.82494 | -69.83233 | 36072 ft | 444 kts | 358° |
| 2026-05-05 04:18 | -27.76389 | -69.82088 | 36082 ft | 445 kts | 357° |
| 2026-05-05 04:19 | -27.70285 | -69.80938 | 36039 ft | 443 kts | 359° |
| 2026-05-05 04:19 | -27.64254 | -69.79812 | 36048 ft | 443 kts | 358° |
| 2026-05-05 04:20 | -27.58179 | -69.78685 | 36081 ft | 443 kts | 358° |
| 2026-05-05 04:20 | -27.52094 | -69.77544 | 36082 ft | 444 kts | 359° |
| 2026-05-05 04:21 | -27.46002 | -69.76019 | 36078 ft | 451 kts | 3° |
| 2026-05-05 04:21 | -27.39925 | -69.74166 | 36063 ft | 452 kts | 4° |
| 2026-05-05 04:22 | -27.33854 | -69.72329 | 36067 ft | 452 kts | 3° |
| 2026-05-05 04:22 | -27.27768 | -69.70592 | 36068 ft | 450 kts | 2° |
| 2026-05-05 04:23 | -27.21690 | -69.68896 | 36068 ft | 450 kts | 2° |
| 2026-05-05 04:23 | -27.15643 | -69.67202 | 36079 ft | 451 kts | 3° |
| 2026-05-05 04:24 | -27.09558 | -69.65485 | 36098 ft | 451 kts | 3° |
| 2026-05-05 04:25 | -27.00430 | -69.62896 | 36108 ft | 450 kts | 3° |
| 2026-05-05 04:25 | -26.94355 | -69.61182 | 36102 ft | 449 kts | 3° |
| 2026-05-05 04:26 | -26.88305 | -69.59477 | 36092 ft | 448 kts | 3° |
| 2026-05-05 04:26 | -26.82232 | -69.57771 | 36107 ft | 451 kts | 3° |
| 2026-05-05 04:27 | -26.76173 | -69.56071 | 36108 ft | 452 kts | 3° |
| 2026-05-05 04:27 | -26.70076 | -69.54360 | 36111 ft | 451 kts | 3° |
| 2026-05-05 04:28 | -26.63992 | -69.52656 | 36146 ft | 450 kts | 3° |
| 2026-05-05 04:28 | -26.57912 | -69.50952 | 36148 ft | 450 kts | 3° |
| 2026-05-05 04:29 | -26.51821 | -69.49256 | 36109 ft | 451 kts | 3° |
| 2026-05-05 04:29 | -26.45736 | -69.47555 | 36119 ft | 452 kts | 3° |
| 2026-05-05 04:30 | -26.39624 | -69.45848 | 36117 ft | 453 kts | 3° |
| 2026-05-05 04:30 | -26.33499 | -69.44142 | 36125 ft | 453 kts | 3° |
| 2026-05-05 04:31 | -26.27418 | -69.42448 | 36105 ft | 454 kts | 3° |
| 2026-05-05 04:31 | -26.21289 | -69.40748 | 36101 ft | 454 kts | 4° |
| 2026-05-05 04:32 | -26.15166 | -69.39039 | 36140 ft | 454 kts | 4° |
| 2026-05-05 04:32 | -26.09033 | -69.37336 | 36146 ft | 454 kts | 4° |
| 2026-05-05 04:33 | -26.02886 | -69.35643 | 36138 ft | 455 kts | 4° |
| 2026-05-05 04:33 | -25.96749 | -69.33943 | 36142 ft | 454 kts | 4° |
| 2026-05-05 04:34 | -25.90611 | -69.32240 | 36124 ft | 454 kts | 4° |
| 2026-05-05 04:34 | -25.85514 | -69.30833 | 36130 ft | 454 kts | 4° |
| 2026-05-05 04:35 | -25.79384 | -69.29143 | 36135 ft | 454 kts | 4° |
| 2026-05-05 04:35 | -25.73252 | -69.27452 | 36136 ft | 454 kts | 4° |
| 2026-05-05 04:36 | -25.67120 | -69.25759 | 36195 ft | 454 kts | 4° |
| 2026-05-05 04:36 | -25.60989 | -69.24071 | 36178 ft | 454 kts | 4° |
| 2026-05-05 04:37 | -25.54861 | -69.22532 | 36179 ft | 448 kts | 1° |
| 2026-05-05 04:37 | -25.48727 | -69.21470 | 36181 ft | 445 kts | 358° |
| 2026-05-05 04:38 | -25.42593 | -69.20538 | 36183 ft | 445 kts | 359° |
| 2026-05-05 04:38 | -25.36492 | -69.19523 | 36185 ft | 447 kts | 359° |
| 2026-05-05 04:39 | -25.30347 | -69.18429 | 36156 ft | 448 kts | 0° |
| 2026-05-05 04:39 | -25.24179 | -69.17325 | 36159 ft | 449 kts | 360° |
| 2026-05-05 04:40 | -25.18010 | -69.16241 | 36156 ft | 449 kts | 359° |
| 2026-05-05 04:40 | -25.11835 | -69.15178 | 36162 ft | 449 kts | 359° |
| 2026-05-05 04:41 | -25.05663 | -69.14106 | 36151 ft | 449 kts | 360° |
| 2026-05-05 04:41 | -24.99486 | -69.13026 | 36141 ft | 449 kts | 0° |
| 2026-05-05 04:42 | -24.93315 | -69.11949 | 36172 ft | 449 kts | 0° |
| 2026-05-05 04:42 | -24.87179 | -69.10884 | 36173 ft | 448 kts | 1° |
| 2026-05-05 04:43 | -24.81016 | -69.09815 | 36160 ft | 449 kts | 0° |
| 2026-05-05 04:43 | -24.74848 | -69.08746 | 36154 ft | 449 kts | 0° |
| 2026-05-05 04:44 | -24.68675 | -69.07649 | 36119 ft | 450 kts | 1° |
| 2026-05-05 04:44 | -24.62493 | -69.06531 | 36125 ft | 450 kts | 0° |
| 2026-05-05 04:45 | -24.56353 | -69.05432 | 36116 ft | 450 kts | 0° |
| 2026-05-05 04:45 | -24.50173 | -69.04335 | 36116 ft | 450 kts | 0° |
| 2026-05-05 04:46 | -24.43982 | -69.03249 | 36101 ft | 450 kts | 0° |
| 2026-05-05 04:46 | -24.37796 | -69.02155 | 36079 ft | 451 kts | 1° |
| 2026-05-05 04:47 | -24.31608 | -69.01052 | 36085 ft | 451 kts | 1° |
| 2026-05-05 04:47 | -24.25416 | -68.99955 | 36075 ft | 451 kts | 1° |
| 2026-05-05 04:48 | -24.19218 | -68.98860 | 36097 ft | 450 kts | 1° |
| 2026-05-05 04:48 | -24.13026 | -68.97762 | 36070 ft | 451 kts | 1° |
| 2026-05-05 04:49 | -24.06869 | -68.96677 | 36075 ft | 451 kts | 1° |
| 2026-05-05 04:49 | -24.00662 | -68.95580 | 36055 ft | 452 kts | 1° |
| 2026-05-05 04:50 | -23.94443 | -68.94494 | 36061 ft | 453 kts | 1° |
| 2026-05-05 04:50 | -23.88202 | -68.93392 | 36052 ft | 453 kts | 1° |
| 2026-05-05 04:51 | -23.81970 | -68.92281 | 36055 ft | 454 kts | 1° |
| 2026-05-05 04:51 | -23.75735 | -68.91186 | 36066 ft | 454 kts | 1° |
| 2026-05-05 04:52 | -23.69505 | -68.90103 | 36038 ft | 452 kts | 1° |
| 2026-05-05 04:52 | -23.66409 | -68.89563 | 35527 ft | 450 kts | 1° |
| 2026-05-05 04:52 | -23.63357 | -68.89031 | 34821 ft | 451 kts | 1° |
| 2026-05-05 04:52 | -23.60251 | -68.88489 | 34044 ft | 454 kts | 2° |
| 2026-05-05 04:53 | -23.57111 | -68.87940 | 33217 ft | 456 kts | 2° |
| 2026-05-05 04:53 | -23.53986 | -68.87391 | 32607 ft | 453 kts | 3° |
| 2026-05-05 04:53 | -23.50888 | -68.86844 | 32026 ft | 449 kts | 3° |
| 2026-05-05 04:53 | -23.47819 | -68.86304 | 31504 ft | 445 kts | 3° |
| 2026-05-05 04:54 | -23.44774 | -68.85770 | 30984 ft | 441 kts | 4° |
| 2026-05-05 04:54 | -23.41763 | -68.85361 | 30479 ft | 429 kts | 354° |
| 2026-05-05 04:54 | -23.38915 | -68.85866 | 29629 ft | 406 kts | 333° |
| 2026-05-05 04:54 | -23.36556 | -68.87389 | 28647 ft | 388 kts | 313° |
| 2026-05-05 04:55 | -23.34894 | -68.89630 | 27670 ft | 376 kts | 295° |
| 2026-05-05 04:55 | -23.34027 | -68.92272 | 26738 ft | 369 kts | 279° |
| 2026-05-05 04:55 | -23.33613 | -68.95021 | 25796 ft | 367 kts | 278° |
| 2026-05-05 04:55 | -23.32921 | -68.97676 | 24935 ft | 366 kts | 296° |
| 2026-05-05 04:56 | -23.31314 | -68.99779 | 24310 ft | 362 kts | 320° |
| 2026-05-05 04:56 | -23.29089 | -69.00943 | 23662 ft | 364 kts | 345° |
| 2026-05-05 04:56 | -23.26555 | -69.00996 | 22783 ft | 368 kts | 4° |
| 2026-05-05 04:56 | -23.24019 | -69.00586 | 21874 ft | 369 kts | 6° |
| 2026-05-05 04:57 | -23.21490 | -69.00124 | 21050 ft | 368 kts | 7° |
| 2026-05-05 04:57 | -23.18975 | -68.99649 | 20271 ft | 366 kts | 7° |
| 2026-05-05 04:57 | -23.16478 | -68.99178 | 19541 ft | 363 kts | 7° |
| 2026-05-05 04:57 | -23.13992 | -68.98721 | 18829 ft | 361 kts | 7° |
| 2026-05-05 04:58 | -23.11523 | -68.98277 | 18122 ft | 358 kts | 7° |
| 2026-05-05 04:58 | -23.09103 | -68.97849 | 17626 ft | 347 kts | 8° |
| 2026-05-05 04:58 | -23.06742 | -68.97434 | 17035 ft | 341 kts | 8° |
| 2026-05-05 04:58 | -23.04414 | -68.97027 | 16426 ft | 337 kts | 8° |
| 2026-05-05 04:59 | -23.02116 | -68.96628 | 15823 ft | 332 kts | 8° |
| 2026-05-05 04:59 | -22.99835 | -68.96232 | 15402 ft | 331 kts | 8° |
| 2026-05-05 04:59 | -22.97572 | -68.95837 | 15103 ft | 328 kts | 8° |
| 2026-05-05 04:59 | -22.95323 | -68.95444 | 14791 ft | 326 kts | 8° |
| 2026-05-05 05:00 | -22.93092 | -68.95051 | 14465 ft | 324 kts | 9° |
| 2026-05-05 05:00 | -22.90865 | -68.94657 | 14108 ft | 324 kts | 9° |
| 2026-05-05 05:00 | -22.88644 | -68.94267 | 13826 ft | 322 kts | 9° |
| 2026-05-05 05:00 | -22.86462 | -68.93888 | 13667 ft | 321 kts | 9° |
| 2026-05-05 05:01 | -22.84262 | -68.93503 | 13702 ft | 321 kts | 9° |
| 2026-05-05 05:01 | -22.82052 | -68.93146 | 13729 ft | 322 kts | 4° |
| 2026-05-05 05:01 | -22.79865 | -68.93520 | 13755 ft | 320 kts | 335° |
| 2026-05-05 05:01 | -22.78107 | -68.94948 | 13776 ft | 318 kts | 307° |
| 2026-05-05 05:02 | -22.77106 | -68.97054 | 13787 ft | 316 kts | 288° |
| 2026-05-05 05:02 | -22.76335 | -68.99296 | 13785 ft | 318 kts | 291° |
| 2026-05-05 05:02 | -22.75431 | -69.01486 | 13777 ft | 319 kts | 295° |
| 2026-05-05 05:02 | -22.74359 | -69.03597 | 13776 ft | 317 kts | 300° |
| 2026-05-05 05:03 | -22.73163 | -69.05539 | 13778 ft | 304 kts | 305° |
| 2026-05-05 05:03 | -22.71884 | -69.07299 | 13783 ft | 290 kts | 309° |
| 2026-05-05 05:03 | -22.70559 | -69.08879 | 13785 ft | 277 kts | 313° |
| 2026-05-05 05:03 | -22.69211 | -69.10295 | 13781 ft | 262 kts | 317° |
| 2026-05-05 05:04 | -22.67847 | -69.11559 | 13782 ft | 256 kts | 321° |
| 2026-05-05 05:04 | -22.66431 | -69.12718 | 13782 ft | 255 kts | 323° |
| 2026-05-05 05:04 | -22.64983 | -69.13831 | 13780 ft | 255 kts | 324° |
| 2026-05-05 05:04 | -22.63531 | -69.14925 | 13721 ft | 252 kts | 324° |
| 2026-05-05 05:05 | -22.62096 | -69.16006 | 13416 ft | 251 kts | 324° |
| 2026-05-05 05:05 | -22.60641 | -69.17043 | 13087 ft | 249 kts | 335° |
| 2026-05-05 05:05 | -22.59006 | -69.17496 | 12783 ft | 246 kts | 357° |
| 2026-05-05 05:05 | -22.57307 | -69.17606 | 12491 ft | 245 kts | 357° |
| 2026-05-05 05:06 | -22.55609 | -69.17717 | 12195 ft | 243 kts | 358° |
| 2026-05-05 05:06 | -22.53928 | -69.17828 | 11930 ft | 241 kts | 358° |
| 2026-05-05 05:06 | -22.52258 | -69.17907 | 11652 ft | 239 kts | 6° |
| 2026-05-05 05:06 | -22.50675 | -69.17461 | 11395 ft | 233 kts | 30° |
| 2026-05-05 05:07 | -22.49414 | -69.16406 | 10986 ft | 228 kts | 52° |
| 2026-05-05 05:07 | -22.48653 | -69.14981 | 10901 ft | 213 kts | 72° |
| 2026-05-05 05:07 | -22.48417 | -69.13459 | 10772 ft | 199 kts | 92° |
| 2026-05-05 05:07 | -22.48510 | -69.12008 | 10651 ft | 188 kts | 94° |
| 2026-05-05 05:08 | -22.48607 | -69.10622 | 10447 ft | 184 kts | 94° |
| 2026-05-05 05:08 | -22.48702 | -69.09252 | 10190 ft | 182 kts | 94° |
| 2026-05-05 05:08 | -22.48794 | -69.07897 | 9928 ft | 179 kts | 94° |
| 2026-05-05 05:08 | -22.48885 | -69.06570 | 9652 ft | 173 kts | 94° |
| 2026-05-05 05:09 | -22.48972 | -69.05312 | 9399 ft | 165 kts | 94° |
| 2026-05-05 05:09 | -22.49056 | -69.04091 | 9161 ft | 162 kts | 94° |
| 2026-05-05 05:09 | -22.49138 | -69.02893 | 8937 ft | 161 kts | 94° |
| 2026-05-05 05:09 | -22.49218 | -69.01690 | 8697 ft | 160 kts | 94° |
| 2026-05-05 05:10 | -22.49289 | -69.00496 | 8449 ft | 160 kts | 92° |
| 2026-05-05 05:10 | -22.49358 | -68.99291 | 8330 ft | 159 kts | 93° |
| 2026-05-05 05:10 | -22.49423 | -68.98104 | 8162 ft | 160 kts | 94° |
| 2026-05-05 05:10 | -22.49536 | -68.96876 | 7991 ft | 163 kts | 97° |
| 2026-05-05 05:11 | -22.49627 | -68.95656 | 7833 ft | 162 kts | 95° |
| 2026-05-05 05:11 | -22.49721 | -68.94458 | 7716 ft | 158 kts | 95° |
| 2026-05-05 05:11 | -22.49803 | -68.93302 | 7598 ft | 151 kts | 95° |
| 2026-05-05 05:11 | -22.49882 | -68.92187 | 7509 ft | 148 kts | 96° |
| 2026-05-05 05:12 | -22.49960 | -68.91121 | 7483 ft | 123 kts | 94° |
| 2026-05-05 05:12 | -22.49997 | -68.90529 | 7572 ft | 37 kts | 94° |
| 2026-05-05 05:12 | -22.50015 | -68.90289 | 7543 ft | 27 kts | 95° |
| 2026-05-05 05:12 | -22.50025 | -68.90117 | 7557 ft | 20 kts | 95° |
| 2026-05-05 05:13 | -22.50035 | -68.89974 | 7564 ft | 18 kts | 94° |
| 2026-05-05 05:13 | -22.50044 | -68.89855 | 7572 ft | 14 kts | 94° |
| 2026-05-05 05:13 | -22.50044 | -68.89753 | 7580 ft | 14 kts | 79° |
| 2026-05-05 05:13 | -22.50014 | -68.89676 | 7627 ft | 9 kts | 64° |
| 2026-05-05 05:14 | -22.49988 | -68.89620 | 7589 ft | 7 kts | 63° |
| 2026-05-05 05:14 | -22.49968 | -68.89575 | 7644 ft | 6 kts | 64° |
| 2026-05-05 05:14 | -22.49949 | -68.89535 | 7502 ft | 7 kts | 64° |
| 2026-05-05 05:14 | -22.49922 | -68.89495 | 7594 ft | 5 kts | 24° |
| 2026-05-05 05:15 | -22.49897 | -68.89510 | 7593 ft | 5 kts | 297° |
| 2026-05-05 05:15 | -22.49888 | -68.89594 | 7587 ft | 18 kts | 275° |
| 2026-05-05 05:15 | -22.49874 | -68.89770 | 7578 ft | 28 kts | 274° |
| 2026-05-05 05:15 | -22.49859 | -68.90008 | 7564 ft | 35 kts | 275° |
| 2026-05-05 05:16 | -22.49840 | -68.90289 | 7543 ft | 39 kts | 275° |
| 2026-05-05 05:16 | -22.49819 | -68.90580 | 7518 ft | 35 kts | 274° |
| 2026-05-05 05:16 | -22.49811 | -68.90739 | 7505 ft | 10 kts | 274° |
| 2026-05-05 05:16 | -22.49760 | -68.90777 | 7500 ft | 10 kts | 4° |
| 2026-05-05 05:17 | -22.49691 | -68.90772 | 7496 ft | 10 kts | 3° |
| 2026-05-05 05:17 | -22.49626 | -68.90760 | 7501 ft | 9 kts | 6° |
| 2026-05-05 05:17 | -22.49591 | -68.90758 | 7499 ft | 3 kts | 4° |
| 2026-05-05 05:17 | -22.49587 | -68.90757 | 7499 ft | 0 kts | 4° |